createdAt,value
2018-07-26T00:01:58.832Z,9.97
2018-07-26T00:04:33.460Z,7.10
2018-07-26T00:07:08.448Z,6.43
2018-07-26T00:09:43.137Z,6.67
2018-07-26T00:12:17.852Z,8.30
2018-07-26T00:14:52.464Z,9.07
2018-07-26T00:17:27.340Z,9.90
2018-07-26T00:20:01.994Z,7.67
2018-07-26T00:22:36.852Z,6.47
2018-07-26T00:25:11.343Z,10.20
2018-07-26T00:27:45.924Z,9.27
2018-07-26T00:30:20.637Z,6.00
2018-07-26T00:32:55.544Z,6.53
2018-07-26T00:35:30.068Z,7.63
2018-07-26T00:38:04.768Z,6.83
2018-07-26T00:40:39.248Z,8.10
2018-07-26T00:43:13.777Z,6.93
2018-07-26T00:45:48.288Z,7.10
2018-07-26T00:48:23.204Z,8.53
2018-07-26T00:50:57.666Z,7.33
2018-07-26T00:53:32.195Z,8.07
2018-07-26T00:56:06.993Z,7.63
2018-07-26T00:58:41.652Z,8.40
2018-07-26T01:01:16.335Z,8.33
2018-07-26T01:03:50.780Z,9.87
2018-07-26T01:06:25.252Z,7.17
2018-07-26T01:08:59.624Z,7.70
2018-07-26T01:11:34.024Z,7.53
2018-07-26T01:14:19.098Z,8.00
2018-07-26T01:16:53.569Z,7.43
2018-07-26T01:19:28.272Z,6.97
2018-07-26T01:22:02.744Z,8.03
2018-07-26T01:24:37.448Z,6.90
2018-07-26T01:27:12.071Z,6.83
2018-07-26T01:29:59.937Z,6.43
2018-07-26T01:32:34.365Z,6.33
2018-07-26T01:35:27.848Z,6.27
2018-07-26T01:38:05.738Z,6.90
2018-07-26T01:40:39.967Z,8.13
2018-07-26T01:43:24.559Z,6.07
2018-07-26T01:45:58.969Z,6.20
2018-07-26T01:48:46.461Z,8.83
2018-07-26T01:54:19.877Z,6.47
2018-07-26T01:56:54.255Z,7.87
2018-07-26T01:59:28.695Z,8.93
2018-07-26T02:02:03.115Z,8.73
2018-07-26T02:04:37.495Z,6.57
2018-07-26T02:07:11.876Z,6.60
2018-07-26T02:09:46.251Z,5.93
2018-07-26T02:12:21.255Z,6.67
2018-07-26T02:14:55.672Z,9.47
2018-07-26T02:17:29.948Z,9.33
2018-07-26T02:20:04.548Z,6.73
2018-07-26T02:22:38.955Z,6.63
2018-07-26T02:25:18.567Z,6.97
2018-07-26T02:27:58.519Z,7.90
2018-07-26T02:30:32.912Z,8.67
2018-07-26T02:33:07.483Z,6.73
2018-07-26T02:35:41.847Z,7.60
2018-07-26T02:38:16.172Z,6.50
2018-07-26T02:40:50.800Z,6.43
2018-07-26T02:43:25.103Z,6.93
2018-07-26T02:46:04.888Z,8.70
2018-07-26T02:48:39.502Z,6.03
2018-07-26T02:51:13.887Z,6.80
2018-07-26T02:53:48.314Z,6.60
2018-07-26T02:56:22.792Z,7.03
2018-07-26T02:58:57.071Z,5.10
2018-07-26T03:01:31.407Z,7.20
2018-07-26T03:04:06.052Z,5.80
2018-07-26T03:06:40.424Z,8.50
2018-07-26T03:09:14.724Z,7.40
2018-07-26T03:11:49.141Z,5.83
2018-07-26T03:14:23.599Z,7.83
2018-07-26T03:16:58.040Z,6.50
2018-07-26T03:19:32.465Z,6.83
2018-07-26T03:22:07.184Z,5.40
2018-07-26T03:24:41.753Z,6.27
2018-07-26T03:27:16.229Z,7.27
2018-07-26T03:29:50.653Z,6.80
2018-07-26T03:32:25.293Z,5.97
2018-07-26T03:34:59.896Z,13.37
2018-07-26T03:37:34.589Z,6.77
2018-07-26T03:40:09.189Z,7.03
2018-07-26T03:42:43.825Z,6.90
2018-07-26T03:45:18.332Z,7.20
2018-07-26T03:47:52.957Z,7.33
2018-07-26T03:50:27.310Z,8.93
2018-07-26T03:53:01.997Z,8.23
2018-07-26T03:55:36.484Z,6.97
2018-07-26T03:58:21.451Z,7.20
2018-07-26T04:00:56.112Z,7.13
2018-07-26T04:03:30.734Z,8.73
2018-07-26T04:06:05.312Z,8.50
2018-07-26T04:08:39.956Z,9.20
2018-07-26T04:11:14.547Z,6.27
2018-07-26T04:13:49.193Z,8.77
2018-07-26T04:16:23.928Z,5.43
2018-07-26T04:18:58.500Z,5.73
2018-07-26T04:21:32.940Z,6.33
2018-07-26T04:24:07.565Z,6.93
2018-07-26T04:26:42.165Z,8.40
2018-07-26T04:29:16.840Z,5.77
2018-07-26T04:31:51.325Z,6.60
2018-07-26T04:34:25.948Z,5.10
2018-07-26T04:37:00.659Z,5.70
2018-07-26T04:39:35.292Z,7.17
2018-07-26T04:42:09.821Z,6.13
2018-07-26T04:44:44.213Z,5.07
2018-07-26T04:47:18.721Z,8.40
2018-07-26T04:49:53.441Z,6.50
2018-07-26T04:52:28.043Z,5.40
2018-07-26T04:55:03.071Z,6.40
2018-07-26T04:57:37.690Z,5.87
2018-07-26T05:00:12.375Z,4.77
2018-07-26T05:02:47.128Z,4.53
2018-07-26T05:05:21.654Z,8.13
2018-07-26T05:07:56.275Z,7.53
2018-07-26T05:10:30.749Z,4.57
2018-07-26T05:13:06.357Z,4.40
2018-07-26T05:15:41.097Z,5.17
2018-07-26T05:18:15.855Z,4.43
2018-07-26T05:20:50.295Z,4.63
2018-07-26T05:23:24.956Z,4.67
2018-07-26T05:25:59.420Z,6.27
2018-07-26T05:28:33.860Z,4.93
2018-07-26T05:31:08.437Z,4.13
2018-07-26T05:33:42.916Z,5.67
2018-07-26T05:36:17.503Z,4.03
2018-07-26T05:38:58.497Z,8.13
2018-07-26T05:41:51.668Z,4.43
2018-07-26T05:44:26.128Z,4.57
2018-07-26T05:47:00.522Z,3.50
2018-07-26T05:49:35.100Z,3.70
2018-07-26T05:52:09.589Z,4.37
2018-07-26T05:54:44.045Z,3.57
2018-07-26T05:57:18.580Z,3.20
2018-07-26T05:59:53.057Z,3.13
2018-07-26T06:02:27.545Z,4.67
2018-07-26T06:05:02.001Z,3.80
2018-07-26T06:07:36.911Z,3.63
2018-07-26T06:10:11.540Z,4.03
2018-07-26T06:12:46.096Z,3.70
2018-07-26T06:15:20.700Z,5.57
2018-07-26T06:17:55.187Z,3.37
2018-07-26T06:20:29.669Z,7.43
2018-07-26T06:23:04.205Z,3.60
2018-07-26T06:25:38.735Z,6.87
2018-07-26T06:28:13.358Z,3.80
2018-07-26T06:30:47.777Z,2.80
2018-07-26T06:33:22.413Z,3.57
2018-07-26T06:35:56.989Z,4.13
2018-07-26T06:38:31.507Z,3.00
2018-07-26T06:41:06.093Z,4.17
2018-07-26T06:43:40.677Z,4.00
2018-07-26T06:46:15.220Z,3.87
2018-07-26T06:48:49.588Z,5.40
2018-07-26T06:51:24.063Z,7.50
2018-07-26T06:53:58.724Z,3.03
2018-07-26T06:56:33.461Z,2.70
2018-07-26T06:59:07.960Z,3.00
2018-07-26T07:01:42.336Z,2.57
2018-07-26T07:04:16.726Z,3.27
2018-07-26T07:06:51.126Z,3.50
2018-07-26T07:09:25.720Z,3.37
2018-07-26T07:12:00.182Z,3.80
2018-07-26T07:14:34.685Z,3.33
2018-07-26T07:17:09.107Z,4.97
2018-07-26T07:19:43.744Z,2.43
2018-07-26T07:22:18.478Z,2.83
2018-07-26T07:24:53.136Z,3.37
2018-07-26T07:27:27.687Z,4.43
2018-07-26T07:30:02.107Z,2.43
2018-07-26T07:32:36.600Z,5.50
2018-07-26T07:35:11.346Z,2.47
2018-07-26T07:37:46.069Z,2.93
2018-07-26T07:40:20.689Z,2.73
2018-07-26T07:42:55.409Z,3.37
2018-07-26T07:45:30.005Z,4.73
2018-07-26T07:48:04.590Z,3.37
2018-07-26T07:50:39.228Z,2.13
2018-07-26T07:53:13.869Z,4.10
2018-07-26T07:55:48.620Z,2.97
2018-07-26T07:58:23.223Z,3.13
2018-07-26T08:00:57.990Z,5.23
2018-07-26T08:03:32.604Z,3.93
2018-07-26T08:06:07.000Z,4.63
2018-07-26T08:08:41.717Z,7.03
2018-07-26T08:11:16.424Z,2.40
2018-07-26T08:13:50.776Z,4.47
2018-07-26T08:16:25.448Z,2.63
2018-07-26T08:18:59.924Z,2.57
2018-07-26T08:21:34.456Z,2.63
2018-07-26T08:24:08.832Z,3.30
2018-07-26T08:26:43.233Z,3.30
2018-07-26T08:29:17.597Z,2.93
2018-07-26T08:31:51.993Z,2.40
2018-07-26T08:34:26.388Z,3.07
2018-07-26T08:37:00.854Z,4.00
2018-07-26T08:39:36.863Z,2.85
2018-07-26T08:42:11.137Z,2.70
2018-07-26T08:44:45.588Z,3.00
2018-07-26T08:47:20.081Z,6.37
2018-07-26T08:52:58.954Z,2.75
2018-07-26T08:55:45.780Z,4.62
2018-07-26T09:01:20.845Z,2.33
2018-07-26T09:03:56.576Z,4.47
2018-07-26T09:06:33.116Z,3.35
2018-07-26T09:09:09.992Z,7.25
2018-07-26T09:11:54.021Z,3.10
2018-07-26T09:14:28.447Z,3.85
2018-07-26T09:17:02.800Z,4.42
2018-07-26T09:19:37.415Z,7.12
2018-07-26T09:22:12.528Z,3.27
2018-07-26T09:24:46.925Z,3.25
2018-07-26T09:27:21.349Z,7.53
2018-07-26T09:29:56.144Z,5.22
2018-07-26T09:32:30.688Z,5.60
2018-07-26T09:35:10.120Z,3.77
2018-07-26T09:37:45.204Z,6.28
2018-07-26T09:40:19.720Z,4.40
2018-07-26T09:48:52.770Z,4.95
2018-07-26T09:51:27.643Z,3.72
2018-07-26T09:54:08.129Z,8.13
2018-07-26T09:56:50.863Z,5.55
2018-07-26T09:59:25.447Z,6.45
2018-07-26T10:02:18.427Z,5.47
2018-07-26T10:04:53.019Z,2.65
2018-07-26T10:07:28.842Z,3.60
2018-07-26T10:10:07.033Z,4.70
2018-07-26T10:12:43.351Z,2.27
2018-07-26T10:15:18.497Z,4.00
2018-07-26T10:17:58.681Z,3.52
2018-07-26T10:20:36.444Z,3.22
2018-07-26T10:23:22.900Z,2.60
2018-07-26T10:25:57.548Z,2.27
2018-07-26T10:28:32.024Z,3.17
2018-07-26T10:31:07.496Z,3.12
2018-07-26T10:33:50.952Z,5.42
2018-07-26T10:36:31.489Z,1.60
2018-07-26T10:39:08.147Z,1.85
2018-07-26T10:41:42.480Z,2.45
2018-07-26T10:44:16.980Z,2.85
2018-07-26T10:46:51.596Z,2.42
2018-07-26T10:49:26.111Z,3.05
2018-07-26T10:52:00.882Z,1.95
2018-07-26T10:54:35.379Z,2.52
2018-07-26T10:57:09.914Z,1.80
2018-07-26T10:59:44.432Z,2.25
2018-07-26T11:02:20.869Z,4.42
2018-07-26T11:05:09.515Z,3.83
2018-07-26T11:07:44.501Z,4.05
2018-07-26T11:10:19.072Z,2.17
2018-07-26T11:12:54.287Z,2.50
2018-07-26T11:15:31.981Z,3.33
2018-07-26T11:18:06.725Z,4.37
2018-07-26T11:20:45.876Z,3.42
2018-07-26T11:23:20.633Z,3.75
2018-07-26T11:25:55.073Z,4.17
2018-07-26T11:28:29.592Z,2.98
2018-07-26T11:31:17.831Z,3.25
2018-07-26T11:33:52.312Z,4.08
2018-07-26T11:36:26.663Z,3.40
2018-07-26T11:39:00.933Z,3.98
2018-07-26T11:41:35.342Z,3.37
2018-07-26T11:44:09.807Z,5.78
2018-07-26T11:46:45.157Z,3.50
2018-07-26T11:49:19.695Z,3.92
2018-07-26T11:51:54.135Z,2.50
2018-07-26T11:54:28.443Z,7.83
2018-07-26T11:57:02.838Z,3.10
2018-07-26T11:59:37.207Z,5.23
2018-07-26T12:02:13.479Z,4.27
2018-07-26T12:04:52.188Z,5.57
2018-07-26T12:07:26.662Z,3.60
2018-07-26T12:10:01.067Z,4.63
2018-07-26T12:12:35.412Z,5.60
2018-07-26T12:15:10.135Z,3.60
2018-07-26T12:17:44.642Z,4.67
2018-07-26T12:20:18.959Z,2.73
2018-07-26T12:22:53.369Z,4.53
2018-07-26T12:25:27.623Z,3.47
2018-07-26T12:28:02.072Z,6.30
2018-07-26T12:30:38.376Z,3.37
2018-07-26T12:33:12.976Z,4.07
2018-07-26T12:36:05.953Z,3.37
2018-07-26T12:38:40.301Z,2.87
2018-07-26T12:41:20.333Z,3.00
2018-07-26T12:44:18.899Z,3.57
2018-07-26T12:46:53.249Z,2.87
2018-07-26T12:49:27.802Z,3.13
2018-07-26T12:52:02.098Z,2.40
2018-07-26T12:54:38.236Z,2.70
2018-07-26T12:57:13.224Z,4.23
2018-07-26T12:59:47.956Z,3.83
2018-07-26T13:02:22.509Z,3.10
2018-07-26T13:04:57.337Z,2.67
2018-07-26T13:07:31.600Z,5.03
2018-07-26T13:10:06.175Z,4.67
2018-07-26T13:12:40.518Z,2.60
2018-07-26T13:15:14.940Z,4.40
2018-07-26T13:17:49.259Z,4.53
2018-07-26T13:20:23.503Z,4.97
2018-07-26T13:22:57.763Z,2.60
2018-07-26T13:25:32.176Z,2.87
2018-07-26T13:28:06.597Z,2.73
2018-07-26T13:30:40.865Z,3.53
2018-07-26T13:33:15.404Z,3.37
2018-07-26T13:35:50.051Z,4.13
2018-07-26T13:38:24.275Z,3.93
2018-07-26T13:41:09.208Z,2.40
2018-07-26T13:43:49.928Z,4.23
2018-07-26T13:46:24.377Z,2.93
2018-07-26T13:52:04.751Z,2.80
2018-07-26T13:54:44.340Z,3.77
2018-07-26T13:57:21.067Z,5.07
2018-07-26T13:59:55.494Z,3.20
2018-07-26T14:02:29.835Z,3.10
2018-07-26T14:05:04.469Z,2.70
2018-07-26T14:07:38.812Z,2.40
2018-07-26T14:10:13.248Z,2.70
2018-07-26T14:12:47.471Z,2.20
2018-07-26T14:15:21.944Z,2.33
2018-07-26T14:17:56.279Z,2.43
2018-07-26T14:20:30.712Z,3.70
2018-07-26T14:23:05.045Z,3.60
2018-07-26T14:25:39.504Z,3.00
2018-07-26T14:28:13.776Z,3.60
2018-07-26T14:30:48.472Z,2.20
2018-07-26T14:33:22.844Z,2.53
2018-07-26T14:35:57.376Z,2.33
2018-07-26T14:38:31.758Z,3.37
2018-07-26T14:41:06.183Z,2.27
2018-07-26T14:43:40.737Z,3.17
2018-07-26T14:46:15.038Z,2.80
2018-07-26T14:48:49.371Z,1.97
2018-07-26T14:51:23.804Z,1.97
2018-07-26T14:53:58.291Z,4.40
2018-07-26T14:56:32.621Z,3.27
2018-07-26T14:59:06.983Z,1.80
2018-07-26T15:01:41.407Z,3.47
2018-07-26T15:04:15.814Z,1.87
2018-07-26T15:06:50.191Z,3.50
2018-07-26T15:09:24.599Z,4.50
2018-07-26T15:11:59.103Z,5.63
2018-07-26T15:14:33.596Z,6.10
2018-07-26T15:17:08.051Z,2.40
2018-07-26T15:19:42.473Z,3.83
2018-07-26T15:22:16.695Z,2.33
2018-07-26T15:24:51.142Z,3.77
2018-07-26T15:27:25.502Z,3.33
2018-07-26T15:29:59.943Z,4.63
2018-07-26T15:32:34.334Z,3.93
2018-07-26T15:35:08.786Z,2.03
2018-07-26T15:37:43.240Z,2.80
2018-07-26T15:40:17.987Z,3.70
2018-07-26T15:42:52.468Z,2.67
2018-07-26T15:45:26.891Z,3.73
2018-07-26T15:48:01.316Z,3.20
2018-07-26T15:50:36.187Z,4.63
2018-07-26T15:53:10.591Z,3.63
2018-07-26T15:55:44.924Z,5.67
2018-07-26T15:58:19.311Z,3.77
2018-07-26T16:00:53.597Z,3.77
2018-07-26T16:03:28.241Z,4.37
2018-07-26T16:06:02.599Z,2.07
2018-07-26T16:08:36.933Z,3.77
2018-07-26T16:11:11.455Z,3.37
2018-07-26T16:13:49.407Z,4.80
2018-07-26T16:16:23.848Z,3.77
2018-07-26T16:19:04.004Z,2.23
2018-07-26T16:21:38.711Z,2.50
2018-07-26T16:24:13.020Z,2.10
2018-07-26T16:26:47.407Z,3.17
2018-07-26T16:29:21.863Z,2.40
2018-07-26T16:31:56.313Z,1.90
2018-07-26T16:34:30.692Z,1.80
2018-07-26T16:37:05.100Z,2.37
2018-07-26T16:39:39.743Z,2.77
2018-07-26T16:42:14.134Z,2.23
2018-07-26T16:44:48.520Z,4.10
2018-07-26T16:47:22.945Z,4.93
2018-07-26T16:49:57.582Z,6.00
2018-07-26T16:52:31.971Z,2.73
2018-07-26T16:55:06.622Z,4.20
2018-07-26T16:57:41.177Z,3.83
2018-07-26T17:00:15.545Z,8.93
2018-07-26T17:02:49.996Z,12.03
2018-07-26T17:05:24.368Z,5.00
2018-07-26T17:07:58.779Z,3.50
2018-07-26T17:10:36.915Z,4.87
2018-07-26T17:13:11.069Z,2.20
2018-07-26T17:15:47.393Z,2.60
2018-07-26T17:18:21.678Z,2.93
2018-07-26T17:20:57.170Z,1.93
2018-07-26T17:26:30.976Z,3.90
2018-07-26T17:29:05.454Z,3.03
2018-07-26T17:31:39.755Z,4.03
2018-07-26T17:34:14.215Z,3.93
2018-07-26T17:37:00.696Z,2.17
2018-07-26T17:39:38.569Z,3.13
2018-07-26T17:42:31.784Z,2.60
2018-07-26T17:45:08.199Z,2.73
2018-07-26T17:47:42.475Z,3.50
2018-07-26T17:50:16.963Z,2.57
2018-07-26T17:52:51.252Z,1.43
2018-07-26T17:55:25.555Z,2.00
2018-07-26T17:57:59.992Z,2.03
2018-07-26T18:00:34.507Z,1.70
2018-07-26T18:03:08.947Z,3.33
2018-07-26T18:05:43.203Z,3.10
2018-07-26T18:08:17.859Z,2.00
2018-07-26T18:10:52.540Z,2.00
2018-07-26T18:13:26.873Z,2.73
2018-07-26T18:16:01.335Z,2.27
2018-07-26T18:18:35.692Z,2.73
2018-07-26T18:21:10.011Z,1.63
2018-07-26T18:23:44.408Z,1.83
2018-07-26T18:26:18.825Z,1.63
2018-07-26T18:28:53.456Z,2.00
2018-07-26T18:31:27.952Z,2.27
2018-07-26T18:34:02.317Z,2.87
2018-07-26T18:36:36.736Z,2.70
2018-07-26T18:39:12.807Z,1.90
2018-07-26T18:41:47.276Z,2.43
2018-07-26T18:44:21.668Z,2.53
2018-07-26T18:46:56.040Z,2.70
2018-07-26T18:49:30.579Z,2.23
2018-07-26T18:52:05.083Z,2.67
2018-07-26T18:54:39.480Z,2.93
2018-07-26T18:57:13.943Z,4.07
2018-07-26T18:59:48.398Z,3.97
2018-07-26T19:02:22.696Z,2.50
2018-07-26T19:04:57.037Z,2.37
2018-07-26T19:07:31.416Z,4.83
2018-07-26T19:10:07.504Z,3.10
2018-07-26T19:12:42.007Z,3.57
2018-07-26T19:15:16.435Z,4.30
2018-07-26T19:17:50.688Z,7.07
2018-07-26T19:20:24.996Z,6.07
2018-07-26T19:22:59.279Z,6.23
2018-07-26T19:25:33.552Z,7.83
2018-07-26T19:28:07.944Z,7.20
2018-07-26T19:30:42.508Z,8.23
2018-07-26T19:33:16.824Z,5.87
2018-07-26T19:35:51.111Z,4.73
2018-07-26T19:38:25.826Z,10.37
2018-07-26T19:41:00.208Z,9.63
2018-07-26T19:43:34.627Z,9.50
2018-07-26T19:46:09.096Z,5.60
2018-07-26T19:48:43.488Z,7.37
2018-07-26T19:51:17.780Z,7.57
2018-07-26T19:53:52.273Z,4.17
2018-07-26T19:56:26.524Z,3.83
2018-07-26T19:59:00.963Z,6.20
2018-07-26T20:01:35.307Z,6.27
2018-07-26T20:04:09.787Z,3.30
2018-07-26T20:06:44.227Z,3.53
2018-07-26T20:09:18.611Z,2.83
2018-07-26T20:11:53.063Z,3.40
2018-07-26T20:14:27.355Z,4.03
2018-07-26T20:17:01.852Z,4.23
2018-07-26T20:19:36.172Z,2.73
2018-07-26T20:22:10.645Z,2.90
2018-07-26T20:24:45.065Z,6.23
2018-07-26T20:27:19.615Z,3.80
2018-07-26T20:29:54.083Z,3.37
2018-07-26T20:32:28.676Z,4.53
2018-07-26T20:35:02.960Z,2.70
2018-07-26T20:37:37.340Z,5.73
2018-07-26T20:40:12.154Z,3.43
2018-07-26T20:42:46.704Z,3.77
2018-07-26T20:45:20.902Z,3.63
2018-07-26T20:47:55.675Z,2.63
2018-07-26T20:50:29.955Z,2.50
2018-07-26T20:53:04.248Z,4.93
2018-07-26T20:55:38.648Z,2.70
2018-07-26T20:58:13.083Z,3.13
2018-07-26T21:00:47.576Z,4.00
2018-07-26T21:03:21.988Z,5.37
2018-07-26T21:05:56.435Z,3.30
2018-07-26T21:08:31.015Z,4.10
2018-07-26T21:11:05.712Z,3.23
2018-07-26T21:13:40.237Z,2.63
2018-07-26T21:16:14.615Z,3.17
2018-07-26T21:18:49.090Z,6.33
2018-07-26T21:21:23.524Z,2.37
2018-07-26T21:23:57.895Z,4.33
2018-07-26T21:26:32.250Z,3.13
2018-07-26T21:29:06.459Z,5.83
2018-07-26T21:31:40.866Z,4.30
2018-07-26T21:34:15.267Z,3.90
2018-07-26T21:36:49.659Z,5.07
2018-07-26T21:39:24.056Z,3.80
2018-07-26T21:41:58.313Z,4.53
2018-07-26T21:44:32.707Z,7.70
2018-07-26T21:47:06.943Z,4.37
2018-07-26T21:49:41.388Z,5.23
2018-07-26T21:52:15.704Z,4.33
2018-07-26T21:54:50.004Z,3.43
2018-07-26T21:57:24.403Z,3.30
2018-07-26T21:59:58.848Z,3.83
2018-07-26T22:02:33.361Z,3.93
2018-07-26T22:05:07.820Z,6.20
2018-07-26T22:07:42.383Z,3.93
2018-07-26T22:10:16.775Z,7.53
2018-07-26T22:12:51.056Z,4.17
2018-07-26T22:15:25.488Z,4.93
2018-07-26T22:17:59.779Z,5.00
2018-07-26T22:20:34.238Z,3.37
2018-07-26T22:23:08.666Z,4.10
2018-07-26T22:25:47.620Z,3.90
2018-07-26T22:28:21.895Z,6.93
2018-07-26T22:30:56.199Z,5.13
2018-07-26T22:33:37.135Z,3.97
2018-07-26T22:36:11.408Z,4.20
2018-07-26T22:38:45.804Z,3.30
2018-07-26T22:41:20.222Z,3.20
2018-07-26T22:43:54.639Z,3.97
2018-07-26T22:46:28.978Z,4.87
2018-07-26T22:49:03.640Z,3.03
2018-07-26T22:51:37.943Z,3.07
2018-07-26T22:54:12.268Z,3.03
2018-07-26T22:56:46.539Z,3.07
2018-07-26T22:59:20.971Z,4.07
2018-07-26T23:01:55.368Z,2.73
2018-07-26T23:04:29.639Z,3.23
2018-07-26T23:07:04.273Z,3.17
2018-07-26T23:09:38.555Z,4.97
2018-07-26T23:12:12.962Z,2.97
2018-07-26T23:14:47.341Z,5.77
2018-07-26T23:17:21.883Z,5.50
2018-07-26T23:19:56.200Z,4.17
2018-07-26T23:22:30.484Z,4.40
2018-07-26T23:25:05.675Z,5.43
2018-07-26T23:27:40.779Z,3.13
2018-07-26T23:30:15.047Z,3.43
2018-07-26T23:32:49.412Z,3.60
2018-07-26T23:35:23.815Z,4.30
2018-07-26T23:37:58.257Z,3.30
2018-07-26T23:40:32.687Z,5.17
2018-07-26T23:43:07.284Z,5.57
2018-07-26T23:45:41.620Z,6.13
2018-07-26T23:48:16.563Z,4.37
2018-07-26T23:50:50.950Z,4.13
2018-07-26T23:53:25.340Z,4.87
2018-07-26T23:56:12.296Z,5.23
2018-07-26T23:58:46.688Z,3.90
